createdAt,value
2017-08-25T00:02:14.162Z,5.30
2017-08-25T00:04:41.012Z,5.70
2017-08-25T00:07:08.088Z,5.37
2017-08-25T00:09:35.138Z,4.83
2017-08-25T00:12:01.947Z,4.70
2017-08-25T00:14:29.325Z,5.27
2017-08-25T00:16:56.130Z,4.37
2017-08-25T00:19:22.956Z,5.10
2017-08-25T00:21:49.724Z,5.20
2017-08-25T00:24:16.840Z,5.40
2017-08-25T00:26:44.008Z,5.13
2017-08-25T00:29:11.079Z,5.50
2017-08-25T00:31:38.511Z,6.10
2017-08-25T00:34:05.703Z,5.80
2017-08-25T00:36:32.499Z,5.20
2017-08-25T00:39:00.075Z,5.60
2017-08-25T00:41:27.744Z,6.03
2017-08-25T00:43:54.536Z,5.70
2017-08-25T00:46:21.326Z,5.23
2017-08-25T00:48:48.425Z,5.00
2017-08-25T00:51:15.654Z,5.77
2017-08-25T00:53:42.538Z,5.10
2017-08-25T00:56:10.509Z,5.57
2017-08-25T00:58:37.352Z,5.83
2017-08-25T01:01:04.141Z,5.53
2017-08-25T01:03:31.224Z,5.30
2017-08-25T01:05:58.063Z,5.90
2017-08-25T01:08:24.863Z,5.47
2017-08-25T01:10:51.768Z,6.17
2017-08-25T01:13:18.667Z,5.30
2017-08-25T01:15:45.876Z,4.97
2017-08-25T01:18:12.725Z,5.90
2017-08-25T01:20:39.674Z,5.70
2017-08-25T01:23:06.852Z,6.27
2017-08-25T01:25:34.091Z,6.03
2017-08-25T01:28:00.977Z,6.27
2017-08-25T01:30:27.799Z,6.17
2017-08-25T01:32:55.366Z,6.90
2017-08-25T01:35:22.607Z,5.53
2017-08-25T01:37:49.430Z,5.77
2017-08-25T01:40:16.876Z,6.33
2017-08-25T01:42:43.710Z,5.80
2017-08-25T01:45:11.240Z,6.47
2017-08-25T01:47:38.491Z,5.93
2017-08-25T01:50:05.296Z,5.73
2017-08-25T01:52:32.091Z,6.23
2017-08-25T01:54:59.166Z,7.80
2017-08-25T01:57:26.679Z,5.80
2017-08-25T01:59:53.936Z,8.23
2017-08-25T02:02:21.497Z,6.30
2017-08-25T02:04:48.727Z,6.30
2017-08-25T02:07:15.833Z,7.57
2017-08-25T02:09:42.679Z,6.73
2017-08-25T02:12:09.520Z,7.23
2017-08-25T02:14:36.526Z,6.90
2017-08-25T02:17:03.352Z,6.70
2017-08-25T02:19:30.484Z,8.17
2017-08-25T02:21:57.370Z,7.30
2017-08-25T02:24:24.603Z,8.07
2017-08-25T02:26:51.851Z,7.53
2017-08-25T02:29:18.627Z,6.50
2017-08-25T02:31:46.209Z,7.70
2017-08-25T02:34:13.624Z,6.13
2017-08-25T02:36:40.780Z,6.90
2017-08-25T02:39:07.604Z,8.20
2017-08-25T02:41:34.729Z,7.47
2017-08-25T02:44:01.938Z,8.07
2017-08-25T02:49:01.815Z,8.57
2017-08-25T02:51:28.762Z,8.40
2017-08-25T02:53:56.291Z,7.03
2017-08-25T02:56:23.178Z,8.13
2017-08-25T02:58:50.088Z,8.83
2017-08-25T03:01:16.982Z,8.80
2017-08-25T03:03:43.768Z,8.10
2017-08-25T03:06:10.938Z,8.57
2017-08-25T03:08:37.821Z,8.47
2017-08-25T03:11:04.603Z,8.97
2017-08-25T03:13:31.798Z,8.90
2017-08-25T03:15:58.920Z,8.87
2017-08-25T03:18:26.206Z,10.47
2017-08-25T03:20:53.291Z,9.57
2017-08-25T03:23:20.814Z,9.00
2017-08-25T03:25:47.960Z,10.60
2017-08-25T03:28:15.646Z,10.03
2017-08-25T03:30:43.007Z,9.50
2017-08-25T03:33:10.059Z,10.30
2017-08-25T03:35:36.867Z,9.73
2017-08-25T03:38:03.861Z,11.93
2017-08-25T03:40:30.913Z,10.50
2017-08-25T03:42:57.734Z,11.50
2017-08-25T03:45:24.892Z,11.40
2017-08-25T03:47:52.066Z,9.90
2017-08-25T03:50:18.892Z,10.70
2017-08-25T03:52:46.177Z,11.03
2017-08-25T03:55:12.981Z,10.70
2017-08-25T03:57:39.846Z,12.60
2017-08-25T04:00:07.645Z,12.70
2017-08-25T04:02:34.529Z,11.80
2017-08-25T04:05:01.733Z,11.37
2017-08-25T04:07:29.001Z,12.83
2017-08-25T04:09:56.010Z,13.77
2017-08-25T04:12:23.239Z,12.30
2017-08-25T04:14:50.627Z,12.90
2017-08-25T04:17:17.821Z,14.13
2017-08-25T04:19:44.643Z,12.17
2017-08-25T04:22:12.065Z,12.67
2017-08-25T04:24:38.943Z,12.60
2017-08-25T04:27:05.979Z,11.80
2017-08-25T04:29:33.816Z,12.90
2017-08-25T04:32:00.710Z,13.17
2017-08-25T04:34:27.569Z,12.20
2017-08-25T04:36:55.280Z,10.77
2017-08-25T04:39:22.206Z,11.47
2017-08-25T04:41:49.394Z,12.57
2017-08-25T04:44:16.194Z,12.03
2017-08-25T04:46:43.446Z,11.43
2017-08-25T04:49:10.287Z,12.10
2017-08-25T04:51:37.600Z,11.20
2017-08-25T04:54:04.659Z,11.90
2017-08-25T04:56:32.499Z,11.80
2017-08-25T04:58:59.685Z,11.93
2017-08-25T05:01:26.565Z,12.37
2017-08-25T05:03:53.789Z,12.77
2017-08-25T05:06:20.598Z,13.10
2017-08-25T05:08:47.426Z,10.83
2017-08-25T05:11:14.477Z,12.03
2017-08-25T05:13:41.690Z,11.50
2017-08-25T05:16:08.567Z,10.63
2017-08-25T05:18:35.629Z,12.10
2017-08-25T05:21:02.862Z,11.43
2017-08-25T05:23:29.747Z,11.03
2017-08-25T05:25:56.964Z,9.80
2017-08-25T05:28:24.630Z,11.07
2017-08-25T05:30:52.133Z,10.13
2017-08-25T05:33:19.651Z,11.07
2017-08-25T05:35:46.708Z,10.37
2017-08-25T05:38:13.759Z,10.30
2017-08-25T05:40:40.589Z,10.17
2017-08-25T05:43:07.872Z,9.80
2017-08-25T05:45:34.918Z,9.57
2017-08-25T05:48:01.968Z,10.10
2017-08-25T05:50:28.739Z,9.80
2017-08-25T05:52:55.771Z,10.43
2017-08-25T05:55:22.821Z,10.97
2017-08-25T05:57:49.623Z,10.80
2017-08-25T06:00:16.932Z,11.30
2017-08-25T06:02:43.984Z,10.13
2017-08-25T06:05:11.036Z,10.10
2017-08-25T06:07:37.964Z,10.70
2017-08-25T06:10:05.466Z,10.30
2017-08-25T06:12:32.659Z,9.90
2017-08-25T06:14:59.698Z,10.27
2017-08-25T06:17:26.757Z,10.77
2017-08-25T06:19:54.241Z,9.40
2017-08-25T06:22:21.162Z,9.33
2017-08-25T06:24:48.440Z,9.30
2017-08-25T06:27:15.270Z,8.83
2017-08-25T06:29:43.174Z,8.50
2017-08-25T06:32:10.649Z,8.73
2017-08-25T06:34:37.443Z,7.60
2017-08-25T06:37:04.778Z,8.53
2017-08-25T06:39:32.070Z,9.47
2017-08-25T06:41:59.632Z,8.53
2017-08-25T06:44:26.648Z,8.73
2017-08-25T06:46:53.533Z,6.17
2017-08-25T06:49:20.759Z,6.33
2017-08-25T06:51:48.026Z,5.20
2017-08-25T06:54:15.445Z,6.73
2017-08-25T06:56:42.235Z,5.97
2017-08-25T06:59:10.138Z,6.40
2017-08-25T07:01:37.439Z,6.87
2017-08-25T07:04:04.300Z,6.90
2017-08-25T07:06:31.540Z,4.80
2017-08-25T07:08:58.848Z,6.20
2017-08-25T07:11:26.655Z,5.50
2017-08-25T07:13:53.941Z,6.37
2017-08-25T07:16:20.950Z,5.40
2017-08-25T07:18:48.364Z,5.20
2017-08-25T07:21:15.771Z,5.33
2017-08-25T07:23:42.717Z,5.90
2017-08-25T07:26:09.754Z,5.20
2017-08-25T07:28:36.821Z,6.03
2017-08-25T07:31:04.031Z,6.20
2017-08-25T07:33:31.088Z,7.80
2017-08-25T07:35:58.683Z,5.20
2017-08-25T07:38:25.794Z,4.50
2017-08-25T07:40:52.710Z,4.40
2017-08-25T07:43:19.558Z,3.73
2017-08-25T07:45:46.564Z,3.50
2017-08-25T07:48:13.383Z,3.57
2017-08-25T07:50:40.460Z,4.17
2017-08-25T07:53:08.350Z,3.33
2017-08-25T07:55:35.794Z,2.87
2017-08-25T07:58:03.028Z,3.00
2017-08-25T08:00:30.514Z,3.83
2017-08-25T08:02:57.572Z,3.17
2017-08-25T08:05:24.802Z,2.73
2017-08-25T08:07:51.985Z,2.87
2017-08-25T08:10:19.031Z,2.10
2017-08-25T08:12:46.880Z,1.37
2017-08-25T08:15:14.627Z,2.77
2017-08-25T08:17:41.725Z,2.80
2017-08-25T08:20:08.531Z,2.60
2017-08-25T08:22:36.023Z,1.50
2017-08-25T08:25:03.034Z,2.07
2017-08-25T08:27:29.942Z,2.10
2017-08-25T08:29:56.852Z,2.37
2017-08-25T08:32:23.990Z,2.43
2017-08-25T08:34:50.807Z,3.00
2017-08-25T08:37:17.612Z,2.73
2017-08-25T08:39:44.414Z,2.03
2017-08-25T08:42:11.475Z,2.50
2017-08-25T08:44:38.843Z,2.63
2017-08-25T08:47:06.061Z,2.07
2017-08-25T08:49:33.121Z,2.83
2017-08-25T08:52:00.277Z,2.60
2017-08-25T08:54:27.058Z,1.80
2017-08-25T08:56:54.543Z,2.70
2017-08-25T08:59:21.466Z,2.83
2017-08-25T09:01:48.520Z,2.10
2017-08-25T09:04:15.739Z,1.97
2017-08-25T09:06:42.595Z,2.77
2017-08-25T09:09:09.850Z,2.03
2017-08-25T09:11:37.239Z,2.40
2017-08-25T09:14:04.518Z,3.00
2017-08-25T09:16:32.125Z,2.20
2017-08-25T09:18:59.126Z,2.07
2017-08-25T09:21:26.383Z,1.93
2017-08-25T09:23:54.109Z,2.23
2017-08-25T09:26:21.366Z,1.50
2017-08-25T09:28:49.276Z,2.50
2017-08-25T09:31:16.397Z,2.27
2017-08-25T09:33:43.182Z,1.93
2017-08-25T09:36:10.695Z,2.20
2017-08-25T09:38:37.865Z,2.53
2017-08-25T09:41:04.910Z,2.70
2017-08-25T09:43:32.554Z,2.77
2017-08-25T09:45:59.788Z,2.63
2017-08-25T09:48:26.828Z,2.60
2017-08-25T09:50:53.864Z,2.97
2017-08-25T09:53:21.288Z,2.30
2017-08-25T09:55:48.123Z,2.73
2017-08-25T09:58:15.817Z,2.53
2017-08-25T10:00:43.177Z,2.90
2017-08-25T10:03:10.418Z,3.40
2017-08-25T10:05:38.152Z,2.70
2017-08-25T10:08:05.087Z,3.10
2017-08-25T10:10:33.043Z,3.13
2017-08-25T10:12:59.863Z,1.07
2017-08-25T10:15:26.646Z,2.60
2017-08-25T10:17:53.963Z,2.40
2017-08-25T10:20:21.010Z,1.43
2017-08-25T10:22:48.013Z,2.17
2017-08-25T10:25:15.248Z,2.27
2017-08-25T10:27:42.130Z,2.00
2017-08-25T10:30:09.352Z,2.30
2017-08-25T10:32:36.239Z,1.47
2017-08-25T10:35:22.186Z,1.67
2017-08-25T10:37:54.903Z,2.73
2017-08-25T10:40:29.671Z,2.37
2017-08-25T10:43:02.683Z,1.57
2017-08-25T10:45:29.737Z,2.80
2017-08-25T10:47:56.927Z,2.40
2017-08-25T10:50:24.153Z,2.10
2017-08-25T10:52:51.383Z,1.90
2017-08-25T10:55:19.374Z,1.13
2017-08-25T10:57:46.192Z,1.80
2017-08-25T11:00:13.114Z,1.33
2017-08-25T11:02:40.026Z,1.43
2017-08-25T11:05:06.924Z,1.53
2017-08-25T11:07:33.970Z,1.77
2017-08-25T11:10:01.187Z,0.77
2017-08-25T11:12:28.244Z,2.50
2017-08-25T11:14:55.132Z,1.40
2017-08-25T11:17:21.942Z,1.20
2017-08-25T11:19:49.931Z,0.87
2017-08-25T11:22:17.065Z,1.20
2017-08-25T11:24:44.125Z,1.20
2017-08-25T11:27:11.176Z,1.10
2017-08-25T11:29:37.947Z,1.43
2017-08-25T11:32:05.282Z,1.00
2017-08-25T11:34:32.169Z,1.33
2017-08-25T11:36:59.223Z,0.80
2017-08-25T11:39:26.039Z,1.47
2017-08-25T11:41:52.857Z,1.30
2017-08-25T11:44:19.935Z,1.23
2017-08-25T11:46:46.808Z,0.90
2017-08-25T11:49:14.559Z,0.90
2017-08-25T11:51:41.549Z,0.90
2017-08-25T11:54:08.448Z,0.83
2017-08-25T11:56:35.706Z,0.93
2017-08-25T11:59:03.427Z,0.73
2017-08-25T12:01:30.670Z,1.00
2017-08-25T12:03:58.199Z,1.17
2017-08-25T12:06:25.253Z,0.80
2017-08-25T12:08:52.059Z,1.17
2017-08-25T12:11:19.363Z,0.90
2017-08-25T12:13:46.131Z,0.97
2017-08-25T12:16:13.302Z,0.80
2017-08-25T12:18:40.076Z,1.10
2017-08-25T12:21:07.858Z,0.60
2017-08-25T12:23:34.930Z,1.20
2017-08-25T12:26:01.704Z,1.40
2017-08-25T12:28:29.321Z,0.60
2017-08-25T12:30:56.239Z,1.10
2017-08-25T12:33:23.917Z,0.90
2017-08-25T12:35:51.356Z,0.90
2017-08-25T12:38:19.500Z,0.90
2017-08-25T12:40:47.241Z,1.30
2017-08-25T12:43:14.062Z,0.90
2017-08-25T12:45:41.729Z,1.20
2017-08-25T12:48:08.503Z,1.00
2017-08-25T12:50:35.419Z,1.63
2017-08-25T12:53:02.331Z,1.00
2017-08-25T12:55:29.383Z,1.10
2017-08-25T12:57:56.449Z,1.37
2017-08-25T13:00:23.334Z,1.17
2017-08-25T13:02:50.385Z,1.27
2017-08-25T13:05:17.163Z,1.10
2017-08-25T13:07:43.969Z,1.10
2017-08-25T13:10:11.088Z,1.17
2017-08-25T13:12:38.141Z,0.47
2017-08-25T13:15:05.191Z,1.13
2017-08-25T13:17:31.970Z,1.27
2017-08-25T13:19:58.993Z,1.17
2017-08-25T13:22:25.811Z,1.10
2017-08-25T13:24:53.099Z,1.20
2017-08-25T13:27:19.992Z,1.20
2017-08-25T13:29:47.044Z,1.30
2017-08-25T13:32:13.812Z,1.47
2017-08-25T13:34:40.636Z,1.20
2017-08-25T13:37:07.948Z,1.00
2017-08-25T13:39:34.946Z,0.57
2017-08-25T13:42:02.775Z,1.80
2017-08-25T13:44:30.276Z,1.53
2017-08-25T13:46:57.809Z,1.40
2017-08-25T13:49:24.618Z,1.20
2017-08-25T13:51:51.429Z,1.57
2017-08-25T13:54:18.655Z,1.17
2017-08-25T13:56:45.709Z,1.20
2017-08-25T13:59:12.492Z,1.02
2017-08-25T14:01:39.287Z,1.63
2017-08-25T14:04:06.563Z,1.10
2017-08-25T14:06:33.620Z,0.80
2017-08-25T14:09:01.190Z,1.40
2017-08-25T14:11:28.183Z,1.30
2017-08-25T14:13:55.391Z,0.80
2017-08-25T14:16:22.279Z,1.10
2017-08-25T14:18:49.122Z,1.47
2017-08-25T14:21:16.087Z,1.27
2017-08-25T14:23:43.295Z,1.27
2017-08-25T14:26:10.825Z,1.20
2017-08-25T14:28:39.261Z,1.20
2017-08-25T14:31:06.611Z,1.00
2017-08-25T14:33:33.659Z,1.30
2017-08-25T14:36:00.542Z,1.40
2017-08-25T14:38:27.456Z,1.60
2017-08-25T14:40:54.243Z,0.93
2017-08-25T14:43:21.252Z,1.37
2017-08-25T14:45:48.313Z,1.10
2017-08-25T14:48:15.202Z,1.03
2017-08-25T14:50:42.328Z,1.10
2017-08-25T14:53:09.162Z,0.80
2017-08-25T14:55:36.070Z,1.50
2017-08-25T14:58:02.907Z,1.53
2017-08-25T15:00:30.015Z,1.10
2017-08-25T15:02:57.879Z,1.43
2017-08-25T15:05:24.662Z,1.07
2017-08-25T15:07:51.783Z,1.50
2017-08-25T15:10:18.839Z,1.23
2017-08-25T15:12:45.643Z,0.97
2017-08-25T15:15:12.958Z,1.23
2017-08-25T15:17:40.007Z,1.00
2017-08-25T15:20:07.059Z,1.20
2017-08-25T15:22:34.113Z,1.20
2017-08-25T15:25:00.888Z,1.50
2017-08-25T15:27:27.906Z,0.97
2017-08-25T15:29:55.147Z,1.50
2017-08-25T15:32:22.644Z,1.57
2017-08-25T15:34:50.207Z,1.13
2017-08-25T15:37:17.565Z,0.90
2017-08-25T15:39:44.973Z,1.30
2017-08-25T15:42:12.637Z,1.17
2017-08-25T15:44:39.732Z,1.30
2017-08-25T15:47:06.628Z,1.00
2017-08-25T15:49:33.764Z,1.13
2017-08-25T15:52:00.751Z,1.20
2017-08-25T15:54:27.786Z,1.20
2017-08-25T15:56:55.238Z,1.20
2017-08-25T15:59:22.366Z,1.30
2017-08-25T16:01:49.414Z,0.90
2017-08-25T16:04:16.911Z,1.40
2017-08-25T16:06:44.206Z,1.30
2017-08-25T16:09:11.335Z,1.00
2017-08-25T16:11:38.382Z,1.20
2017-08-25T16:14:05.628Z,1.50
2017-08-25T16:16:32.650Z,1.27
2017-08-25T16:18:59.739Z,1.10
2017-08-25T16:21:26.961Z,1.30
2017-08-25T16:23:53.957Z,2.10
2017-08-25T16:26:21.587Z,1.47
2017-08-25T16:28:49.416Z,1.13
2017-08-25T16:31:16.339Z,0.90
2017-08-25T16:33:43.123Z,2.10
2017-08-25T16:36:10.759Z,1.20
2017-08-25T16:38:37.565Z,1.40
2017-08-25T16:41:05.320Z,1.10
2017-08-25T16:43:33.002Z,1.60
2017-08-25T16:46:00.526Z,1.10
2017-08-25T16:48:27.557Z,1.97
2017-08-25T16:50:55.038Z,0.90
2017-08-25T16:53:22.138Z,1.20
2017-08-25T16:55:48.932Z,1.00
2017-08-25T16:58:15.779Z,1.10
2017-08-25T17:00:42.658Z,1.00
2017-08-25T17:03:10.047Z,1.00
2017-08-25T17:05:36.866Z,1.10
2017-08-25T17:08:04.294Z,1.47
2017-08-25T17:10:31.342Z,0.93
2017-08-25T17:12:59.139Z,1.20
2017-08-25T17:15:25.975Z,0.50
2017-08-25T17:17:52.793Z,2.30
2017-08-25T17:20:20.021Z,2.43
2017-08-25T17:22:47.940Z,1.50
2017-08-25T17:25:15.052Z,2.30
2017-08-25T17:27:41.886Z,1.40
2017-08-25T17:30:08.854Z,1.73
2017-08-25T17:32:36.617Z,1.87
2017-08-25T17:35:03.876Z,1.60
2017-08-25T17:37:30.929Z,1.33
2017-08-25T17:39:58.605Z,3.23
2017-08-25T17:42:26.176Z,1.73
2017-08-25T17:44:53.328Z,2.30
2017-08-25T17:47:20.376Z,1.87
2017-08-25T17:49:47.423Z,2.60
2017-08-25T17:52:14.305Z,2.10
2017-08-25T17:54:41.788Z,2.83
2017-08-25T17:57:09.787Z,3.50
2017-08-25T17:59:36.700Z,3.17
2017-08-25T18:02:03.610Z,4.90
2017-08-25T18:04:30.660Z,4.20
2017-08-25T18:06:58.329Z,3.30
2017-08-25T18:09:25.174Z,4.20
2017-08-25T18:11:52.441Z,4.43
2017-08-25T18:14:19.227Z,4.33
2017-08-25T18:16:46.045Z,4.90
2017-08-25T18:19:12.986Z,4.60
2017-08-25T18:21:39.775Z,4.10
2017-08-25T18:24:06.544Z,3.90
2017-08-25T18:26:33.961Z,3.20
2017-08-25T18:29:01.198Z,5.03
2017-08-25T18:31:27.972Z,4.40
2017-08-25T18:33:54.799Z,5.03
2017-08-25T18:36:21.563Z,6.40
2017-08-25T18:38:49.083Z,52.30
2017-08-25T18:41:15.992Z,4.77
2017-08-25T18:43:42.775Z,4.63
2017-08-25T18:46:09.782Z,4.30
2017-08-25T18:48:36.728Z,3.80
2017-08-25T18:51:03.751Z,4.00
2017-08-25T18:53:30.804Z,3.70
2017-08-25T18:55:57.861Z,4.17
2017-08-25T18:58:24.654Z,4.40
2017-08-25T19:00:51.490Z,4.40
2017-08-25T19:03:18.899Z,4.20
2017-08-25T19:05:45.760Z,3.97
2017-08-25T19:08:13.484Z,3.10
2017-08-25T19:10:41.096Z,3.27
2017-08-25T19:13:07.868Z,4.07
2017-08-25T19:15:34.751Z,4.10
2017-08-25T19:18:01.785Z,3.97
2017-08-25T19:20:29.120Z,4.63
2017-08-25T19:22:56.203Z,4.27
2017-08-25T19:25:23.070Z,4.57
2017-08-25T19:27:50.773Z,4.60
2017-08-25T19:30:17.829Z,6.67
2017-08-25T19:32:45.499Z,6.27
2017-08-25T19:35:12.545Z,6.53
2017-08-25T19:37:40.215Z,5.57
2017-08-25T19:40:07.078Z,7.90
2017-08-25T19:42:34.015Z,6.80
2017-08-25T19:45:01.072Z,5.80
2017-08-25T19:47:28.381Z,4.60
2017-08-25T19:49:55.481Z,5.17
2017-08-25T19:52:22.535Z,7.87
2017-08-25T19:54:49.585Z,5.20
2017-08-25T19:57:16.587Z,5.00
2017-08-25T19:59:43.536Z,6.23
2017-08-25T20:02:10.363Z,7.33
2017-08-25T20:04:37.504Z,7.17
2017-08-25T20:07:04.752Z,6.47
2017-08-25T20:09:32.165Z,8.00
2017-08-25T20:11:59.266Z,6.67
2017-08-25T20:14:26.320Z,7.20
2017-08-25T20:16:54.167Z,6.77
2017-08-25T20:19:21.354Z,8.23
2017-08-25T20:21:48.402Z,8.70
2017-08-25T20:24:15.459Z,9.10
2017-08-25T20:26:42.393Z,7.20
2017-08-25T20:29:09.561Z,7.27
2017-08-25T20:31:36.865Z,7.10
2017-08-25T20:34:04.212Z,6.87
2017-08-25T20:36:31.941Z,6.37
2017-08-25T20:38:59.813Z,6.50
2017-08-25T20:41:26.806Z,6.10
2017-08-25T20:43:53.583Z,5.80
2017-08-25T20:46:21.388Z,6.17
2017-08-25T20:48:48.641Z,5.70
2017-08-25T20:51:15.904Z,5.90
2017-08-25T20:53:42.994Z,5.50
2017-08-25T20:56:10.049Z,5.60
2017-08-25T20:58:37.267Z,5.87
2017-08-25T21:01:04.105Z,6.30
2017-08-25T21:03:30.921Z,5.43
2017-08-25T21:05:58.118Z,5.70
2017-08-25T21:08:25.179Z,7.03
2017-08-25T21:10:51.980Z,6.57
2017-08-25T21:13:18.812Z,6.10
2017-08-25T21:15:46.023Z,6.27
2017-08-25T21:18:13.391Z,7.60
2017-08-25T21:20:40.274Z,9.30
2017-08-25T21:23:07.487Z,10.00
2017-08-25T21:25:34.272Z,9.13
2017-08-25T21:28:01.737Z,8.17
2017-08-25T21:30:28.552Z,8.53
2017-08-25T21:32:55.702Z,8.93
2017-08-25T21:35:22.755Z,8.30
2017-08-25T21:37:49.648Z,8.90
2017-08-25T21:40:16.867Z,7.70
2017-08-25T21:42:43.746Z,8.40
2017-08-25T21:45:10.965Z,7.80
2017-08-25T21:47:38.635Z,7.20
2017-08-25T21:50:06.150Z,6.63
2017-08-25T21:52:33.586Z,6.77
2017-08-25T21:55:00.376Z,5.90
2017-08-25T21:57:27.747Z,6.40
2017-08-25T21:59:54.991Z,6.47
2017-08-25T22:02:21.764Z,5.23
2017-08-25T22:04:48.564Z,6.87
2017-08-25T22:07:15.824Z,6.57
2017-08-25T22:09:43.031Z,5.90
2017-08-25T22:12:09.922Z,5.90
2017-08-25T22:14:37.138Z,5.40
2017-08-25T22:17:04.417Z,6.00
2017-08-25T22:19:31.190Z,6.60
2017-08-25T22:21:58.004Z,7.00
2017-08-25T22:24:24.894Z,6.77
2017-08-25T22:26:52.105Z,6.73
2017-08-25T22:29:18.987Z,6.60
2017-08-25T22:31:46.038Z,6.00
2017-08-25T22:34:12.867Z,5.50
2017-08-25T22:36:39.702Z,6.53
2017-08-25T22:39:06.471Z,6.20
2017-08-25T22:41:33.605Z,6.50
2017-08-25T22:44:01.379Z,5.97
2017-08-25T22:46:28.526Z,6.70
2017-08-25T22:48:55.787Z,5.97
2017-08-25T22:51:23.188Z,6.10
2017-08-25T22:53:50.501Z,6.27
2017-08-25T22:56:17.657Z,6.80
2017-08-25T22:58:44.854Z,6.70
2017-08-25T23:01:12.229Z,6.53
2017-08-25T23:03:39.430Z,6.43
2017-08-25T23:06:07.058Z,6.70
2017-08-25T23:08:33.874Z,6.17
2017-08-25T23:11:00.901Z,6.20
2017-08-25T23:13:28.271Z,7.53
2017-08-25T23:15:55.049Z,6.40
2017-08-25T23:18:21.827Z,6.07
2017-08-25T23:20:49.109Z,5.50
2017-08-25T23:23:17.005Z,6.80
2017-08-25T23:25:44.143Z,5.90
2017-08-25T23:28:11.363Z,6.40
2017-08-25T23:30:38.728Z,6.73
2017-08-25T23:33:05.751Z,5.83
2017-08-25T23:35:32.657Z,6.70
2017-08-25T23:38:00.036Z,6.37
2017-08-25T23:40:27.420Z,6.50
2017-08-25T23:42:55.041Z,5.77
2017-08-25T23:45:22.096Z,6.73
2017-08-25T23:47:48.890Z,6.30
2017-08-25T23:50:16.069Z,6.40
2017-08-25T23:52:43.486Z,6.10
2017-08-25T23:55:10.807Z,6.20
2017-08-25T23:57:37.639Z,6.13
